Time;durP1;ratioP1;P1;durP2;ratioP2;P2;SDS_P1;SDS_P2;PMS_P1;PMS_P2;Temp;Humidity;BMP_temperature;BMP_pressure;BME280_temperature;BME280_humidity;BME280_pressure;Samples;Min_cycle;Max_cycle;Signal;HPM_P1;HPM_P2
2021/04/19 00:01:07;;;;;;;21.63;17.47;;;7.20;87.60;;;;;;5114103;28;20052;-67
2021/04/19 00:03:33;;;;;;;24.50;17.93;;;7.20;87.40;;;;;;5115029;28;20055;-67
2021/04/19 00:05:59;;;;;;;25.00;18.63;;;7.10;87.80;;;;;;5114461;27;20055;-67
2021/04/19 00:08:25;;;;;;;25.00;19.07;;;7.10;88.00;;;;;;5114822;27;20059;-67
2021/04/19 00:10:51;;;;;;;28.83;20.27;;;7.00;88.50;;;;;;5115054;28;20079;-67
2021/04/19 00:13:16;;;;;;;28.70;19.30;;;7.00;88.70;;;;;;5114722;27;20297;-67
2021/04/19 00:15:42;;;;;;;24.53;18.20;;;6.90;89.00;;;;;;5114742;28;21118;-67
2021/04/19 00:18:09;;;;;;;28.40;20.30;;;6.90;88.70;;;;;;5114495;27;20046;-67
2021/04/19 00:20:35;;;;;;;24.10;19.73;;;6.90;88.90;;;;;;5114371;28;20305;-67
2021/04/19 00:23:01;;;;;;;32.53;20.97;;;6.90;89.50;;;;;;5114480;28;20074;-67
2021/04/19 00:25:27;;;;;;;31.60;19.63;;;7.00;89.50;;;;;;5114869;28;20051;-67
2021/04/19 00:27:52;;;;;;;23.63;18.90;;;7.00;89.20;;;;;;5113778;28;20096;-67
2021/04/19 00:30:20;;;;;;;26.10;19.67;;;7.00;89.10;;;;;;5114367;27;20051;-67
2021/04/19 00:32:45;;;;;;;24.07;19.20;;;7.10;89.00;;;;;;5110822;28;20348;-67
2021/04/19 00:35:12;;;;;;;27.50;20.50;;;7.10;89.10;;;;;;5110814;28;20385;-67
2021/04/19 00:37:37;;;;;;;24.87;20.03;;;7.10;89.10;;;;;;5111373;28;20048;-67
2021/04/19 00:40:15;;;;;;;27.97;21.00;;;7.20;90.00;;;;;;5111371;28;20297;-67
2021/04/19 00:42:42;;;;;;;28.00;20.43;;;7.20;90.10;;;;;;5110675;28;20048;-67
2021/04/19 00:45:09;;;;;;;33.17;20.07;;;7.20;90.10;;;;;;5110982;27;20380;-67
2021/04/19 00:47:35;;;;;;;26.33;19.97;;;7.20;90.10;;;;;;5111888;28;20385;-67
2021/04/19 00:50:04;;;;;;;32.43;20.67;;;7.20;90.00;;;;;;5110715;28;20809;-67
2021/04/19 00:52:30;;;;;;;29.33;20.33;;;7.30;90.00;;;;;;5111483;28;20407;-67
2021/04/19 00:54:58;;;;;;;29.17;22.00;;;7.30;89.80;;;;;;5110475;28;20313;-67
2021/04/19 00:57:24;;;;;;;29.90;21.60;;;7.30;89.90;;;;;;5110408;27;20362;-67
2021/04/19 00:59:50;;;;;;;29.00;21.00;;;7.40;89.90;;;;;;5111380;28;20301;-67
2021/04/19 01:02:16;;;;;;;29.77;20.73;;;7.30;89.90;;;;;;5110373;28;20051;-67
2021/04/19 01:04:41;;;;;;;26.40;20.43;;;7.40;90.00;;;;;;5110472;28;20554;-67
2021/04/19 01:07:07;;;;;;;26.17;20.47;;;7.40;90.10;;;;;;5111161;28;20048;-67
2021/04/19 01:09:33;;;;;;;27.80;20.03;;;7.50;90.10;;;;;;5110336;28;20067;-67
2021/04/19 01:11:59;;;;;;;24.63;19.53;;;7.50;90.00;;;;;;5110157;28;20407;-67
2021/04/19 01:14:24;;;;;;;24.80;20.97;;;7.50;90.00;;;;;;5110767;28;20301;-67
2021/04/19 01:16:50;;;;;;;26.67;20.17;;;7.50;90.00;;;;;;5110493;28;20134;-67
2021/04/19 01:19:15;;;;;;;30.30;21.77;;;7.60;90.00;;;;;;5110234;28;20525;-67
2021/04/19 01:21:41;;;;;;;28.10;21.10;;;7.50;90.00;;;;;;5110374;28;20055;-67
2021/04/19 01:24:07;;;;;;;26.43;21.10;;;7.50;90.10;;;;;;5109727;28;20053;-67
2021/04/19 01:26:33;;;;;;;28.53;19.37;;;7.60;90.20;;;;;;5110695;28;20484;-67
2021/04/19 01:28:58;;;;;;;28.13;19.87;;;7.50;90.20;;;;;;5110209;28;20062;-66
2021/04/19 01:31:24;;;;;;;25.43;20.60;;;7.50;90.20;;;;;;5110302;28;20077;-67
2021/04/19 01:33:50;;;;;;;27.03;20.47;;;7.60;90.30;;;;;;5110367;28;20301;-67
2021/04/19 01:36:16;;;;;;;25.60;20.67;;;7.70;90.20;;;;;;5110010;28;20478;-67
2021/04/19 01:38:42;;;;;;;27.30;21.77;;;7.70;90.20;;;;;;5109294;28;20055;-67
2021/04/19 01:41:07;;;;;;;28.63;21.50;;;7.80;90.30;;;;;;5109760;28;20112;-67
2021/04/19 01:43:33;;;;;;;29.30;23.33;;;7.80;90.40;;;;;;5110578;28;20404;-67
2021/04/19 01:45:59;;;;;;;28.77;22.90;;;7.90;90.30;;;;;;5109119;27;20380;-67
2021/04/19 01:48:25;;;;;;;31.03;23.30;;;7.90;90.30;;;;;;5109847;28;20048;-67
2021/04/19 01:50:53;;;;;;;28.53;21.93;;;8.00;90.30;;;;;;5110164;28;20051;-67
2021/04/19 01:53:19;;;;;;;28.10;22.07;;;8.10;90.20;;;;;;5109284;28;20301;-67
2021/04/19 01:55:46;;;;;;;32.47;22.93;;;8.10;90.20;;;;;;5109589;28;20296;-67
2021/04/19 01:58:26;;;;;;;27.30;21.50;;;8.10;90.10;;;;;;5109543;28;20047;-67
2021/04/19 02:00:58;;;;;;;28.03;21.50;;;8.10;90.10;;;;;;5109882;28;20297;-67
2021/04/19 02:03:41;;;;;;;;;;;8.20;90.10;;;;;;5110675;28;20305;-67
2021/04/19 02:06:13;;;;;;;26.93;21.20;;;8.10;90.20;;;;;;5109192;28;19972;-67
2021/04/19 02:09:01;;;;;;;29.23;22.30;;;8.10;89.90;;;;;;5109989;28;20828;-66
2021/04/19 02:11:55;;;;;;;27.20;19.90;;;8.20;90.00;;;;;;5109876;28;20357;-67
2021/04/19 02:14:44;;;;;;;30.20;21.37;;;8.10;90.00;;;;;;5109251;27;20301;-67
2021/04/19 02:17:50;;;;;;;31.63;22.07;;;8.10;90.00;;;;;;5109767;28;20335;-67
2021/04/19 02:20:58;;;;;;;27.00;21.30;;;8.10;90.00;;;;;;5109243;28;20718;-67
2021/04/19 02:23:30;;;;;;;31.67;21.67;;;8.10;89.90;;;;;;5046052;28;20382;-67
2021/04/19 02:26:09;;;;;;;32.47;21.97;;;8.10;89.80;;;;;;5045827;28;20299;-67
2021/04/19 02:28:39;;;;;;;31.17;21.00;;;8.20;89.80;;;;;;5082630;28;20301;-67
2021/04/19 02:31:09;;;;;;;26.20;21.53;;;8.10;89.80;;;;;;5109137;28;20331;-67
2021/04/19 02:33:39;;;;;;;30.17;22.52;;;8.20;89.80;;;;;;5108969;28;20346;-67
2021/04/19 02:36:10;;;;;;;29.57;21.70;;;8.20;90.00;;;;;;5108596;28;20047;-67
2021/04/19 02:38:38;;;;;;;28.73;22.80;;;8.20;89.90;;;;;;5109079;28;20305;-67
2021/04/19 02:41:08;;;;;;;31.90;22.60;;;8.20;90.00;;;;;;5108484;28;20661;-67
2021/04/19 02:43:35;;;;;;;27.93;22.17;;;8.20;89.90;;;;;;5108891;28;20358;-67
2021/04/19 02:46:03;;;;;;;31.50;23.13;;;8.20;89.90;;;;;;5108934;28;20293;-67
2021/04/19 02:48:28;;;;;;;31.80;22.93;;;8.20;89.90;;;;;;5109054;28;20305;-67
2021/04/19 02:50:56;;;;;;;29.13;22.90;;;8.30;89.90;;;;;;5109028;28;20781;-67
2021/04/19 02:53:24;;;;;;;26.63;21.57;;;8.30;89.90;;;;;;5108912;28;20074;-67
2021/04/19 02:55:50;;;;;;;28.57;22.17;;;8.30;89.90;;;;;;5107565;28;20384;-67
2021/04/19 02:58:25;;;;;;;24.83;19.77;;;8.30;89.90;;;;;;5108331;28;20379;-67
2021/04/19 03:00:51;;;;;;;29.50;20.87;;;8.20;89.70;;;;;;5109192;28;20293;-67
2021/04/19 03:03:25;;;;;;;28.90;22.10;;;8.20;89.60;;;;;;5107993;28;20304;-67
2021/04/19 03:05:54;;;;;;;26.73;22.07;;;8.20;90.30;;;;;;5108422;28;20384;-67
2021/04/19 03:08:23;;;;;;;29.57;22.60;;;8.20;89.80;;;;;;5108513;28;20316;-67
2021/04/19 03:11:09;;;;;;;32.63;21.67;;;8.20;89.90;;;;;;5108308;28;20297;-67
2021/04/19 03:13:37;;;;;;;27.20;20.70;;;8.10;89.90;;;;;;5108727;28;20328;-67
2021/04/19 03:16:04;;;;;;;27.60;21.60;;;8.10;90.00;;;;;;5107583;28;20305;-67
2021/04/19 03:18:35;;;;;;;24.33;19.47;;;8.10;89.90;;;;;;5108190;27;20898;-67
2021/04/19 03:21:09;;;;;;;29.42;22.00;;;8.10;89.90;;;;;;5108559;28;20950;-67
2021/04/19 03:23:43;;;;;;;28.37;21.70;;;8.10;89.90;;;;;;5108080;28;20047;-67
2021/04/19 03:26:11;;;;;;;23.10;18.47;;;8.00;89.90;;;;;;5108492;28;20305;-67
2021/04/19 03:28:38;;;;;;;31.13;21.40;;;8.00;89.90;;;;;;5108651;28;20354;-67
2021/04/19 03:31:11;;;;;;;25.13;20.97;;;7.90;89.90;;;;;;5107843;28;21019;-66
2021/04/19 03:33:40;;;;;;;26.77;21.53;;;7.90;90.00;;;;;;5108401;28;20293;-67
2021/04/19 03:36:08;;;;;;;25.03;18.27;;;7.90;90.00;;;;;;5108219;28;20900;-66
2021/04/19 03:38:35;;;;;;;26.23;19.77;;;7.90;90.00;;;;;;5107585;28;20317;-66
2021/04/19 03:41:02;;;;;;;26.03;19.17;;;7.80;90.00;;;;;;5108191;28;20312;-67
2021/04/19 03:43:30;;;;;;;24.47;20.10;;;7.80;90.00;;;;;;5108369;28;20301;-67
2021/04/19 03:45:58;;;;;;;23.83;19.77;;;7.70;90.00;;;;;;5106994;28;20705;-66
2021/04/19 03:48:25;;;;;;;23.97;19.50;;;7.70;90.10;;;;;;5108732;28;20298;-66
2021/04/19 03:51:14;;;;;;;28.70;20.50;;;7.70;90.10;;;;;;5108537;28;20660;-67
2021/04/19 03:53:42;;;;;;;23.50;18.73;;;7.70;90.10;;;;;;5108085;28;20682;-67
2021/04/19 03:56:11;;;;;;;24.30;19.67;;;7.70;90.10;;;;;;5107878;28;20301;-66
2021/04/19 03:58:37;;;;;;;23.50;17.53;;;7.60;90.10;;;;;;5107597;28;20400;-66
2021/04/19 04:01:06;;;;;;;18.27;16.27;;;7.70;90.10;;;;;;5107955;28;20350;-66
2021/04/19 04:03:33;;;;;;;21.97;15.57;;;7.70;90.00;;;;;;5108395;28;20333;-66
2021/04/19 04:06:00;;;;;;;22.93;17.93;;;7.70;90.00;;;;;;5107475;28;20328;-66
2021/04/19 04:08:27;;;;;;;23.63;18.53;;;7.70;90.00;;;;;;5112316;28;20461;-66
2021/04/19 04:10:54;;;;;;;22.93;17.50;;;7.60;90.00;;;;;;5111802;28;20863;-66
2021/04/19 04:13:19;;;;;;;23.63;17.93;;;7.60;90.10;;;;;;5111426;28;20305;-66
2021/04/19 04:15:56;;;;;;;27.27;18.13;;;7.50;90.10;;;;;;5111348;28;20354;-66
2021/04/19 04:18:22;;;;;;;24.60;19.60;;;7.50;90.20;;;;;;5112388;28;20071;-66
2021/04/19 04:20:48;;;;;;;25.47;19.57;;;7.50;90.30;;;;;;5110834;28;20312;-66
2021/04/19 04:23:14;;;;;;;25.50;18.33;;;7.40;90.40;;;;;;5111485;28;20047;-66
2021/04/19 04:25:41;;;;;;;23.77;17.77;;;7.40;90.40;;;;;;5111610;27;20292;-67
2021/04/19 04:28:06;;;;;;;25.10;18.70;;;7.40;90.50;;;;;;5110896;28;20354;-66
2021/04/19 04:30:35;;;;;;;23.10;16.70;;;7.40;90.40;;;;;;5111366;28;20302;-66
2021/04/19 04:33:02;;;;;;;23.40;18.60;;;7.40;90.50;;;;;;5110834;28;20052;-66
2021/04/19 04:35:29;;;;;;;25.70;18.30;;;7.30;90.50;;;;;;5110806;28;20323;-67
2021/04/19 04:37:55;;;;;;;22.80;17.50;;;7.30;90.60;;;;;;5111221;28;20314;-67
2021/04/19 04:40:21;;;;;;;25.83;17.50;;;7.30;90.50;;;;;;5110894;27;20370;-67
2021/04/19 04:42:50;;;;;;;26.33;18.23;;;7.40;90.50;;;;;;5111372;28;20162;-66
2021/04/19 04:45:15;;;;;;;23.87;16.50;;;7.40;90.50;;;;;;5111458;28;20293;-67
2021/04/19 04:48:00;;;;;;;27.20;17.00;;;7.40;90.40;;;;;;5110886;28;20293;-66
2021/04/19 04:50:45;;;;;;;24.47;17.33;;;7.40;90.50;;;;;;5110897;28;20051;-66
2021/04/19 04:53:26;;;;;;;19.53;15.13;;;7.40;90.40;;;;;;5110587;28;20302;-67
2021/04/19 04:55:55;;;;;;;19.70;16.47;;;7.50;90.40;;;;;;5108864;28;20350;-67
2021/04/19 04:58:22;;;;;;;21.17;17.23;;;7.40;90.40;;;;;;5108287;28;20789;-67
2021/04/19 05:00:50;;;;;;;23.70;17.27;;;7.50;90.40;;;;;;5110148;28;20308;-67
2021/04/19 05:03:16;;;;;;;22.07;16.57;;;7.50;90.40;;;;;;5109471;28;20312;-67
2021/04/19 05:05:44;;;;;;;16.23;12.10;;;7.50;90.30;;;;;;5109993;28;20365;-67
2021/04/19 05:08:12;;;;;;;24.77;17.30;;;7.50;90.30;;;;;;5110648;28;20296;-66
2021/04/19 05:10:39;;;;;;;25.07;17.53;;;7.40;90.30;;;;;;5109525;28;20307;-67
2021/04/19 05:13:13;;;;;;;25.00;17.90;;;7.50;90.40;;;;;;5109646;28;20313;-66
2021/04/19 05:15:47;;;;;;;23.67;15.80;;;7.40;90.40;;;;;;5110145;28;21083;-67
2021/04/19 05:18:14;;;;;;;24.13;16.77;;;7.40;90.40;;;;;;5109498;28;20305;-66
2021/04/19 05:20:40;;;;;;;24.73;17.43;;;7.40;90.50;;;;;;5107823;28;20704;-66
2021/04/19 05:23:06;;;;;;;26.63;17.60;;;7.40;90.40;;;;;;5109422;28;20448;-66
2021/04/19 05:25:32;;;;;;;19.83;16.50;;;7.40;90.40;;;;;;5110173;28;20281;-65
2021/04/19 05:27:59;;;;;;;22.00;17.80;;;7.40;90.50;;;;;;5108915;28;20045;-66
2021/04/19 05:30:27;;;;;;;24.10;17.17;;;7.40;90.40;;;;;;5109414;28;20308;-66
2021/04/19 05:32:53;;;;;;;25.50;17.57;;;7.50;90.50;;;;;;5109827;28;20471;-66
2021/04/19 05:35:19;;;;;;;24.23;18.37;;;7.50;90.40;;;;;;5110527;28;20778;-66
2021/04/19 05:37:48;;;;;;;25.40;17.00;;;7.50;90.50;;;;;;5109306;28;20101;-66
2021/04/19 05:40:15;;;;;;;23.63;18.70;;;7.50;90.50;;;;;;5109797;28;20385;-67
2021/04/19 05:42:44;;;;;;;24.13;17.67;;;7.60;90.40;;;;;;5109612;28;20298;-66
2021/04/19 05:45:14;;;;;;;22.10;17.27;;;7.60;90.40;;;;;;5108900;28;20297;-65
2021/04/19 05:47:39;;;;;;;27.87;18.63;;;7.60;90.40;;;;;;5109350;28;20294;-65
2021/04/19 05:50:06;;;;;;;24.63;18.97;;;7.70;90.50;;;;;;5108880;28;20309;-65
2021/04/19 05:52:35;;;;;;;30.70;18.53;;;7.70;90.50;;;;;;5109219;28;20385;-65
2021/04/19 05:55:01;;;;;;;25.60;17.83;;;7.80;90.40;;;;;;5108959;28;20301;-66
2021/04/19 05:57:32;;;;;;;22.30;17.87;;;7.80;90.40;;;;;;5110203;28;20305;-66
2021/04/19 06:00:21;;;;;;;24.43;18.60;;;7.90;90.40;;;;;;5109399;28;20051;-66
2021/04/19 06:03:00;;;;;;;26.23;18.47;;;8.00;90.40;;;;;;5109541;28;20354;-67
2021/04/19 06:05:36;;;;;;;25.83;18.10;;;8.20;90.30;;;;;;5109580;28;20732;-66
2021/04/19 06:08:09;;;;;;;20.23;16.67;;;8.20;90.30;;;;;;5108942;28;20368;-66
2021/04/19 06:10:49;;;;;;;23.53;17.37;;;8.30;90.20;;;;;;5109805;28;20329;-66
2021/04/19 06:13:17;;;;;;;19.30;13.43;;;8.30;90.20;;;;;;5108536;28;20339;-66
2021/04/19 06:15:45;;;;;;;19.17;15.63;;;8.40;90.20;;;;;;5109715;28;20388;-66
2021/04/19 06:18:12;;;;;;;26.27;18.43;;;8.40;90.20;;;;;;5108971;28;20313;-66
2021/04/19 06:20:38;;;;;;;21.63;17.70;;;8.50;90.10;;;;;;5108570;28;20388;-66
2021/04/19 06:23:05;;;;;;;21.50;16.90;;;8.50;90.10;;;;;;5108753;28;20926;-66
2021/04/19 06:25:31;;;;;;;24.43;17.13;;;8.70;90.10;;;;;;5109915;28;20285;-66
2021/04/19 06:28:03;;;;;;;26.00;17.37;;;8.70;90.00;;;;;;5107785;28;20359;-66
2021/04/19 06:30:40;;;;;;;19.30;15.52;;;8.80;89.90;;;;;;5108094;28;20372;-67
2021/04/19 06:33:13;;;;;;;21.13;15.27;;;9.00;90.20;;;;;;5108285;28;20051;-66
2021/04/19 06:35:39;;;;;;;24.03;15.97;;;9.10;89.30;;;;;;5109067;28;20293;-66
2021/04/19 06:38:05;;;;;;;23.93;15.03;;;9.20;89.10;;;;;;5108568;28;20305;-66
2021/04/19 06:40:37;;;;;;;22.80;15.70;;;9.40;89.10;;;;;;5108297;28;20299;-66
2021/04/19 06:43:03;;;;;;;22.90;16.73;;;9.70;88.50;;;;;;5105761;28;20044;-66
2021/04/19 06:45:32;;;;;;;23.53;16.57;;;9.90;87.50;;;;;;5109060;28;20297;-66
2021/04/19 06:48:00;;;;;;;20.83;15.90;;;10.10;87.40;;;;;;5107458;28;20285;-66
2021/04/19 06:50:25;;;;;;;21.40;15.43;;;10.30;87.00;;;;;;5108762;28;20047;-67
2021/04/19 06:52:51;;;;;;;23.53;16.20;;;10.40;86.50;;;;;;5108863;28;20348;-66
2021/04/19 06:55:19;;;;;;;20.40;15.50;;;10.60;85.60;;;;;;5107660;28;20054;-66
2021/04/19 06:57:58;;;;;;;21.57;15.87;;;10.70;85.40;;;;;;5107960;28;20567;-66
2021/04/19 07:00:27;;;;;;;22.67;17.30;;;10.80;85.10;;;;;;5106348;28;20043;-66
2021/04/19 07:03:00;;;;;;;23.20;16.90;;;10.90;84.80;;;;;;5107692;28;20051;-66
2021/04/19 07:05:37;;;;;;;24.63;17.27;;;10.90;84.50;;;;;;5105738;28;20055;-66
2021/04/19 07:08:10;;;;;;;22.33;16.47;;;10.80;84.30;;;;;;5107019;28;20180;-66
2021/04/19 07:10:38;;;;;;;23.00;17.00;;;10.80;84.50;;;;;;5108252;28;20175;-66
2021/04/19 07:13:09;;;;;;;24.40;17.23;;;10.80;84.50;;;;;;5108134;28;20353;-66
2021/04/19 07:15:37;;;;;;;;;;;10.70;84.40;;;;;;5108892;28;20074;-65
2021/04/19 07:18:05;;;;;;;27.30;17.00;;;10.70;83.40;;;;;;5107507;28;20018;-66
2021/04/19 07:20:30;;;;;;;28.03;18.03;;;10.70;84.50;;;;;;5107994;28;20050;-66
2021/04/19 07:22:58;;;;;;;31.53;18.43;;;10.70;84.20;;;;;;5108058;28;20048;-67
2021/04/19 07:25:24;;;;;;;24.60;18.27;;;10.70;83.70;;;;;;5108475;28;20048;-67
2021/04/19 07:27:49;;;;;;;26.10;18.57;;;10.70;83.90;;;;;;5108276;28;20088;-67
2021/04/19 07:30:18;;;;;;;25.83;18.63;;;10.70;83.70;;;;;;5107214;28;20060;-67
2021/04/19 07:32:44;;;;;;;24.57;17.67;;;10.60;83.30;;;;;;5108801;28;20047;-67
2021/04/19 07:35:10;;;;;;;28.30;19.10;;;10.60;83.20;;;;;;5108196;28;20044;-66
2021/04/19 07:37:37;;;;;;;25.90;17.57;;;10.70;83.60;;;;;;5107490;28;20481;-67
2021/04/19 07:40:07;;;;;;;24.30;18.03;;;10.90;83.50;;;;;;5108480;28;20058;-67
2021/04/19 07:42:38;;;;;;;23.43;17.80;;;11.10;82.60;;;;;;5112583;27;20150;-67
2021/04/19 07:45:05;;;;;;;23.23;18.52;;;11.30;82.20;;;;;;5111340;28;20055;-66
2021/04/19 07:47:41;;;;;;;23.10;17.50;;;11.30;81.70;;;;;;5112510;28;20069;-67
2021/04/19 07:50:21;;;;;;;23.90;17.13;;;11.50;81.60;;;;;;5112055;28;20054;-67
2021/04/19 07:53:00;;;;;;;23.10;17.03;;;11.90;80.80;;;;;;5112221;28;20040;-67
2021/04/19 07:55:27;;;;;;;22.00;17.43;;;12.20;80.90;;;;;;5112587;28;20054;-67
2021/04/19 07:57:53;;;;;;;24.80;17.53;;;12.40;80.80;;;;;;5111189;28;20097;-67
2021/04/19 08:00:39;;;;;;;25.07;17.53;;;12.70;80.50;;;;;;5111635;28;20100;-67
2021/04/19 08:03:14;;;;;;;21.60;16.33;;;12.90;78.40;;;;;;5112021;28;20072;-66
2021/04/19 08:05:47;;;;;;;19.13;15.23;;;13.20;78.60;;;;;;5111568;27;20051;-67
2021/04/19 08:08:13;;;;;;;21.30;15.63;;;13.40;78.00;;;;;;5111884;28;20052;-67
2021/04/19 08:10:42;;;;;;;20.10;15.67;;;13.70;77.30;;;;;;5112049;28;20050;-67
2021/04/19 08:13:13;;;;;;;19.97;14.97;;;13.80;76.90;;;;;;5111281;28;20040;-67
2021/04/19 08:15:43;;;;;;;20.57;15.17;;;14.10;76.40;;;;;;5112095;28;20097;-67
2021/04/19 08:18:15;;;;;;;24.13;15.20;;;14.20;75.50;;;;;;5111558;28;20154;-67
2021/04/19 08:20:51;;;;;;;;;;;14.50;75.00;;;;;;5111717;28;20039;-67
2021/04/19 08:23:18;;;;;;;16.87;13.70;;;14.60;71.30;;;;;;5111990;28;19975;-67
2021/04/19 08:25:46;;;;;;;22.37;15.07;;;14.50;75.90;;;;;;5110979;28;20050;-68
2021/04/19 08:28:15;;;;;;;18.60;15.43;;;14.40;74.30;;;;;;5111474;28;20043;-67
2021/04/19 08:30:49;;;;;;;20.10;14.90;;;14.50;73.60;;;;;;5111729;28;20052;-67
2021/04/19 08:33:15;;;;;;;19.03;14.53;;;14.60;72.40;;;;;;5110564;28;20416;-67
2021/04/19 08:35:42;;;;;;;22.87;16.47;;;14.80;72.60;;;;;;5111144;28;20047;-67
2021/04/19 08:38:09;;;;;;;21.83;15.83;;;15.00;71.60;;;;;;5111189;28;20075;-66
2021/04/19 08:40:39;;;;;;;24.50;16.37;;;15.00;70.60;;;;;;5111003;28;20051;-66
2021/04/19 08:43:12;;;;;;;21.70;16.00;;;15.10;70.30;;;;;;5111360;28;20052;-66
2021/04/19 08:45:40;;;;;;;21.67;15.83;;;15.00;69.60;;;;;;5111604;28;20043;-66
2021/04/19 08:48:10;;;;;;;21.97;15.17;;;14.90;70.20;;;;;;5109889;28;20066;-66
2021/04/19 08:50:37;;;;;;;18.87;14.77;;;15.00;70.10;;;;;;5111508;28;20492;-66
2021/04/19 08:53:02;;;;;;;19.57;15.23;;;15.20;70.40;;;;;;5109518;28;20047;-64
2021/04/19 08:55:28;;;;;;;17.53;15.10;;;15.40;69.80;;;;;;5110566;28;20054;-65
2021/04/19 08:58:00;;;;;;;17.80;15.23;;;15.40;68.80;;;;;;5110666;28;20047;-66
2021/04/19 09:00:26;;;;;;;22.83;16.17;;;15.30;68.70;;;;;;5111102;28;20142;-66
2021/04/19 09:02:52;;;;;;;20.53;15.47;;;15.20;68.90;;;;;;5110421;28;20051;-67
2021/04/19 09:05:19;;;;;;;20.60;16.57;;;15.20;69.20;;;;;;5110854;28;20108;-66
2021/04/19 09:07:48;;;;;;;21.70;16.50;;;15.40;69.00;;;;;;5110695;28;20843;-66
2021/04/19 09:10:17;;;;;;;21.50;17.53;;;15.30;67.80;;;;;;5110966;28;20093;-66
2021/04/19 09:12:43;;;;;;;26.57;21.23;;;15.10;67.70;;;;;;5110119;28;20052;-66
2021/04/19 09:15:12;;;;;;;21.27;18.93;;;14.90;68.10;;;;;;5109810;28;20055;-66
2021/04/19 09:17:39;;;;;;;26.03;20.30;;;14.80;68.00;;;;;;5110171;28;20084;-67
2021/04/19 09:20:15;;;;;;;24.80;20.17;;;14.80;67.70;;;;;;5110638;28;20054;-66
2021/04/19 09:22:40;;;;;;;27.70;24.33;;;14.90;68.50;;;;;;5109886;28;20441;-67
2021/04/19 09:25:07;;;;;;;45.47;39.63;;;14.90;68.80;;;;;;5110248;28;20054;-66
2021/04/19 09:27:46;;;;;;;22.97;20.73;;;15.00;69.30;;;;;;5110758;28;20043;-66
2021/04/19 09:30:27;;;;;;;22.77;20.37;;;15.00;68.90;;;;;;5109820;28;20059;-66
2021/04/19 09:33:05;;;;;;;22.37;19.80;;;14.80;67.30;;;;;;5110211;28;20044;-67
2021/04/19 09:35:45;;;;;;;27.87;24.87;;;14.50;68.90;;;;;;5110244;28;20134;-66
2021/04/19 09:38:16;;;;;;;20.37;18.27;;;14.20;69.20;;;;;;5109598;28;20047;-67
2021/04/19 09:40:56;;;;;;;23.70;21.08;;;13.80;69.90;;;;;;5110557;28;20050;-66
2021/04/19 09:43:30;;;;;;;24.57;20.93;;;13.40;70.40;;;;;;5109687;28;20496;-66
2021/04/19 09:45:57;;;;;;;25.17;21.47;;;13.00;71.20;;;;;;5110181;28;20458;-66
2021/04/19 09:48:26;;;;;;;24.53;21.80;;;12.80;71.80;;;;;;5110445;28;20130;-66
2021/04/19 09:51:14;;;;;;;28.70;25.60;;;12.50;72.40;;;;;;5109629;28;20043;-66
2021/04/19 09:53:44;;;;;;;27.77;22.70;;;12.40;73.20;;;;;;5110502;28;20067;-66
2021/04/19 09:56:10;;;;;;;26.67;21.33;;;12.30;73.50;;;;;;5109485;28;20048;-66
2021/04/19 09:58:38;;;;;;;29.70;24.43;;;12.20;74.00;;;;;;5108572;28;20054;-66
2021/04/19 10:01:04;;;;;;;27.47;23.53;;;12.10;74.30;;;;;;5109625;28;20044;-66
2021/04/19 10:03:32;;;;;;;30.23;24.00;;;12.10;74.40;;;;;;5109602;28;20058;-66
2021/04/19 10:06:02;;;;;;;25.37;22.13;;;12.10;74.70;;;;;;5108124;28;20416;-65
2021/04/19 10:08:29;;;;;;;24.67;20.47;;;12.20;74.80;;;;;;5109501;28;20130;-66
2021/04/19 10:10:58;;;;;;;26.80;22.73;;;12.20;74.50;;;;;;5108738;27;20082;-67
2021/04/19 10:13:36;;;;;;;26.60;22.00;;;12.20;74.60;;;;;;5108915;28;20742;-67
2021/04/19 10:16:03;;;;;;;24.67;21.63;;;12.20;74.60;;;;;;5101805;28;20411;-66
2021/04/19 10:18:31;;;;;;;25.90;22.23;;;12.20;74.90;;;;;;5108214;28;20085;-66
2021/04/19 10:20:57;;;;;;;23.57;20.97;;;12.30;74.70;;;;;;5109378;28;20411;-67
2021/04/19 10:23:35;;;;;;;26.30;22.63;;;12.30;75.00;;;;;;5109814;28;20130;-67
2021/04/19 10:26:01;;;;;;;28.77;22.93;;;12.40;75.80;;;;;;5108273;28;20051;-66
2021/04/19 10:28:28;;;;;;;26.43;22.27;;;12.40;74.50;;;;;;5109316;28;20051;-66
2021/04/19 10:31:19;;;;;;;27.57;22.53;;;12.20;74.40;;;;;;5109477;27;20526;-66
2021/04/19 10:33:53;;;;;;;29.25;22.88;;;12.20;75.30;;;;;;5108458;28;20040;-67
2021/04/19 10:36:29;;;;;;;30.77;24.17;;;12.20;75.30;;;;;;5108958;28;20039;-66
2021/04/19 10:38:56;;;;;;;31.97;25.57;;;12.20;75.50;;;;;;5108389;28;20055;-66
2021/04/19 10:41:32;;;;;;;34.33;25.90;;;12.10;75.50;;;;;;5109449;28;20149;-66
2021/04/19 10:43:59;;;;;;;30.67;23.93;;;12.00;75.80;;;;;;5108964;28;20096;-66
2021/04/19 10:46:34;;;;;;;30.87;24.17;;;12.00;76.10;;;;;;5108654;28;20473;-67
2021/04/19 10:49:02;;;;;;;35.43;25.47;;;12.00;76.30;;;;;;5108535;28;20109;-67
2021/04/19 10:51:38;;;;;;;34.60;24.37;;;12.00;76.10;;;;;;5109396;28;20138;-67
2021/04/19 10:54:09;;;;;;;30.80;24.77;;;12.00;76.10;;;;;;5108166;28;20476;-66
2021/04/19 10:56:39;;;;;;;30.83;25.90;;;12.00;76.10;;;;;;5109014;28;20080;-66
2021/04/19 10:59:09;;;;;;;34.00;26.00;;;12.10;76.10;;;;;;5108112;28;20050;-67
2021/04/19 11:01:39;;;;;;;32.33;25.55;;;12.10;76.10;;;;;;5108823;28;20051;-67
2021/04/19 11:04:07;;;;;;;33.40;24.73;;;12.10;75.90;;;;;;5108852;28;20047;-66
2021/04/19 11:06:34;;;;;;;33.80;25.77;;;12.00;76.00;;;;;;5108661;28;20146;-66
2021/04/19 11:09:06;;;;;;;31.97;24.43;;;12.10;76.00;;;;;;5107214;28;20067;-66
2021/04/19 11:11:43;;;;;;;29.93;23.63;;;12.20;75.90;;;;;;5109004;28;20048;-66
2021/04/19 11:14:34;;;;;;;30.20;23.77;;;12.20;75.60;;;;;;5107763;28;20109;-66
2021/04/19 11:17:01;;;;;;;29.35;21.92;;;12.40;75.60;;;;;;5107279;28;20043;-67
2021/04/19 11:19:46;;;;;;;31.70;22.33;;;12.60;74.90;;;;;;5108216;28;20124;-66
2021/04/19 11:22:31;;;;;;;40.73;34.50;;;13.00;73.90;;;;;;5107456;28;20052;-66
2021/04/19 11:25:23;;;;;;;27.07;22.67;;;13.30;72.40;;;;;;5108391;28;20397;-66
2021/04/19 11:28:13;;;;;;;29.60;23.10;;;13.50;71.50;;;;;;5108731;28;20445;-66
2021/04/19 11:30:39;;;;;;;27.17;23.27;;;13.70;71.10;;;;;;5107905;28;20051;-66
2021/04/19 11:33:12;;;;;;;27.57;23.03;;;13.80;70.30;;;;;;5107490;28;20454;-66
2021/04/19 11:35:40;;;;;;;27.07;22.93;;;13.70;69.80;;;;;;5108046;28;20485;-66
2021/04/19 11:38:09;;;;;;;26.83;22.73;;;13.50;70.30;;;;;;5108416;28;20142;-66
2021/04/19 11:40:40;;;;;;;30.60;23.13;;;13.30;70.90;;;;;;5108251;28;20048;-67
2021/04/19 11:43:16;;;;;;;25.08;22.30;;;13.10;71.50;;;;;;5107967;28;20120;-66
2021/04/19 11:45:43;;;;;;;23.43;20.37;;;13.20;71.70;;;;;;5108417;28;20120;-65
2021/04/19 11:48:12;;;;;;;31.70;28.27;;;13.20;71.30;;;;;;5108589;28;20046;-65
2021/04/19 11:50:42;;;;;;;21.27;19.00;;;13.20;71.00;;;;;;5107770;28;20051;-66
2021/04/19 11:53:11;;;;;;;22.67;19.70;;;13.30;71.30;;;;;;5108020;28;20075;-65
2021/04/19 11:55:37;;;;;;;24.00;18.87;;;13.30;70.20;;;;;;5108064;28;20058;-67
2021/04/19 11:58:02;;;;;;;23.00;18.87;;;13.40;70.30;;;;;;5107399;28;20047;-66
2021/04/19 12:00:28;;;;;;;20.77;18.33;;;13.60;70.20;;;;;;5108388;28;20427;-66
2021/04/19 12:02:54;;;;;;;24.33;18.30;;;14.00;68.90;;;;;;5107846;28;20051;-66
2021/04/19 12:05:20;;;;;;;21.13;18.40;;;14.10;67.60;;;;;;5108015;28;20052;-66
2021/04/19 12:07:45;;;;;;;24.83;21.00;;;14.10;67.20;;;;;;5107865;28;20078;-66
2021/04/19 12:10:12;;;;;;;21.43;19.17;;;14.20;67.20;;;;;;5107401;28;20071;-67
2021/04/19 12:12:37;;;;;;;35.17;31.67;;;14.40;66.70;;;;;;5107168;28;20086;-66
2021/04/19 12:15:07;;;;;;;33.90;30.23;;;14.40;66.60;;;;;;5107786;28;20071;-67
2021/04/19 12:17:32;;;;;;;20.60;18.40;;;14.40;66.60;;;;;;5107403;28;20549;-66
2021/04/19 12:19:58;;;;;;;19.73;17.67;;;14.50;67.00;;;;;;5107741;28;20052;-67
2021/04/19 12:22:24;;;;;;;19.30;17.27;;;14.60;66.20;;;;;;5108382;28;20135;-67
2021/04/19 12:24:50;;;;;;;18.70;16.70;;;14.70;65.70;;;;;;5107499;28;20047;-66
2021/04/19 12:27:15;;;;;;;23.67;21.13;;;14.80;65.20;;;;;;5107959;28;20449;-67
2021/04/19 12:29:41;;;;;;;42.47;38.47;;;15.10;64.50;;;;;;5111375;28;20064;-67
2021/04/19 12:32:07;;;;;;;20.40;17.27;;;15.40;63.70;;;;;;5111035;28;20052;-66
2021/04/19 12:34:32;;;;;;;20.30;18.10;;;15.30;62.10;;;;;;5111657;28;20044;-66
2021/04/19 12:36:58;;;;;;;18.70;16.80;;;15.10;63.00;;;;;;5110743;28;20164;-66
2021/04/19 12:39:23;;;;;;;19.90;16.97;;;14.90;63.10;;;;;;5110514;28;20138;-66
2021/04/19 12:41:50;;;;;;;46.87;34.90;;;14.70;63.10;;;;;;5111581;28;20047;-66
2021/04/19 12:44:16;;;;;;;21.90;15.93;;;14.60;63.60;;;;;;5111064;28;20043;-66
2021/04/19 12:46:43;;;;;;;18.37;16.37;;;14.50;63.70;;;;;;5110459;28;20456;-67